createdAt,value
2018-04-17T05:54:36.103Z,12.29
2018-04-17T05:54:36.671Z,12.42
2018-04-17T05:54:37.273Z,12.38
2018-04-17T05:54:37.869Z,12.29
2018-04-17T05:54:38.469Z,12.30
2018-04-17T05:54:39.070Z,12.37
2018-04-17T05:54:39.668Z,12.46
2018-04-17T05:54:40.269Z,12.46
2018-04-17T05:54:40.870Z,12.38
2018-04-17T05:54:41.468Z,12.29
2018-04-17T05:54:42.068Z,12.30
2018-04-17T05:54:42.675Z,12.39
2018-04-17T05:55:37.802Z,12.30
2018-04-17T05:55:38.308Z,12.30
2018-04-17T05:55:38.908Z,12.33
2018-04-17T05:55:39.510Z,12.30
2018-04-17T05:55:40.108Z,12.46
2018-04-17T05:55:40.716Z,12.42
2018-04-17T05:55:41.372Z,12.38
2018-04-17T05:55:41.915Z,12.31
2018-04-17T05:56:35.433Z,12.46
2018-04-17T05:56:36.032Z,12.38
2018-04-17T05:56:36.628Z,12.37
2018-04-17T05:56:37.230Z,12.42
2018-04-17T05:56:37.831Z,12.37
2018-04-17T05:56:38.431Z,12.31
2018-04-17T05:56:39.029Z,12.45
2018-04-17T05:56:39.630Z,12.39
2018-04-17T05:57:33.084Z,12.46
2018-04-17T05:57:33.682Z,12.48
2018-04-17T05:57:34.281Z,12.41
2018-04-17T05:57:34.881Z,12.42
2018-04-17T05:57:35.480Z,12.45
2018-04-17T05:57:36.082Z,12.38
2018-04-17T05:57:36.680Z,12.42
2018-04-17T05:57:37.281Z,12.45
2018-04-17T05:58:30.735Z,12.42
2018-04-17T05:58:31.333Z,12.44
2018-04-17T05:58:31.933Z,12.41
2018-04-17T05:58:32.533Z,12.46
2018-04-17T05:58:33.132Z,12.41
2018-04-17T05:58:33.732Z,12.44
2018-04-17T05:58:34.332Z,12.45
2018-04-17T05:58:34.932Z,12.41
2018-04-17T05:59:28.387Z,12.41
2018-04-17T05:59:28.985Z,12.46
2018-04-17T05:59:29.585Z,12.46
2018-04-17T05:59:30.195Z,12.37
2018-04-17T05:59:30.797Z,12.44
2018-04-17T05:59:31.384Z,12.48
2018-04-17T05:59:31.987Z,12.38
2018-04-17T05:59:32.583Z,12.39
2018-04-17T06:00:26.069Z,12.46
2018-04-17T06:00:26.636Z,12.39
2018-04-17T06:00:27.237Z,12.38
2018-04-17T06:00:27.835Z,12.33
2018-04-17T06:00:28.436Z,12.45
2018-04-17T06:00:29.036Z,12.31
2018-04-17T06:00:29.636Z,12.37
2018-04-17T06:00:30.235Z,12.38
2018-04-17T06:01:23.692Z,12.34
2018-04-17T06:01:24.288Z,12.34
2018-04-17T06:01:24.898Z,12.39
2018-04-17T06:01:25.493Z,12.31
2018-04-17T06:01:26.100Z,12.29
2018-04-17T06:01:26.719Z,12.39
2018-04-17T06:01:27.286Z,12.39
2018-04-17T06:01:27.886Z,12.31
2018-04-17T06:02:21.854Z,12.39
2018-04-17T06:02:22.450Z,12.41
2018-04-17T06:02:23.053Z,12.29
2018-04-17T06:02:23.656Z,12.33
2018-04-17T06:02:24.251Z,12.33
2018-04-17T06:02:24.851Z,12.42
2018-04-17T06:02:25.450Z,12.45
2018-04-17T06:03:20.427Z,12.39
2018-04-17T06:03:21.031Z,12.38
2018-04-17T06:03:21.624Z,12.41
2018-04-17T06:03:22.223Z,12.39
2018-04-17T06:03:22.829Z,12.46
2018-04-17T06:03:23.424Z,12.39
2018-04-17T06:03:24.024Z,12.38
2018-04-17T06:04:18.488Z,12.44
2018-04-17T06:04:19.086Z,12.46
2018-04-17T06:04:19.686Z,12.37
2018-04-17T06:04:20.297Z,12.46
2018-04-17T06:04:20.891Z,12.46
2018-04-17T06:04:21.484Z,12.42
2018-04-17T06:04:22.085Z,12.48
2018-04-17T06:04:22.684Z,12.34
2018-04-17T06:05:16.805Z,12.33
2018-04-17T06:05:17.363Z,12.39
2018-04-17T06:05:17.953Z,12.30
2018-04-17T06:05:18.551Z,12.38
2018-04-17T06:05:19.154Z,12.38
2018-04-17T06:05:19.752Z,12.29
2018-04-17T06:05:20.350Z,12.45
2018-04-17T06:06:13.897Z,12.33
2018-04-17T06:06:14.493Z,12.34
2018-04-17T06:06:15.092Z,12.41
2018-04-17T06:06:15.693Z,12.34
2018-04-17T06:06:16.294Z,12.27
2018-04-17T06:06:16.891Z,12.30
2018-04-17T06:06:17.503Z,12.30
2018-04-17T06:06:18.094Z,12.37
2018-04-17T06:07:12.568Z,12.29
2018-04-17T06:07:13.166Z,12.29
2018-04-17T06:07:13.768Z,12.30
2018-04-17T06:07:14.367Z,12.29
2018-04-17T06:07:14.968Z,12.29
2018-04-17T06:07:15.566Z,12.26
2018-04-17T06:07:16.166Z,12.24
2018-04-17T06:07:16.769Z,12.31
2018-04-17T06:08:11.263Z,12.29
2018-04-17T06:08:11.842Z,12.24
2018-04-17T06:08:12.443Z,12.21
2018-04-17T06:08:13.041Z,12.19
2018-04-17T06:08:13.648Z,12.16
2018-04-17T06:08:14.242Z,12.16
2018-04-17T06:08:14.842Z,12.15
2018-04-17T06:08:15.441Z,12.30
2018-04-17T06:09:08.902Z,12.20
2018-04-17T06:09:09.494Z,12.30
2018-04-17T06:09:10.096Z,12.16
2018-04-17T06:09:10.696Z,12.12
2018-04-17T06:09:11.294Z,12.15
2018-04-17T06:09:11.894Z,12.13
2018-04-17T06:09:12.500Z,12.16
2018-04-17T06:09:13.095Z,12.16
2018-04-17T06:10:07.604Z,12.16
2018-04-17T06:10:08.170Z,12.16
2018-04-17T06:10:08.770Z,12.11
2018-04-17T06:10:09.369Z,12.13
2018-04-17T06:10:09.970Z,12.19
2018-04-17T06:10:10.571Z,12.15
2018-04-17T06:10:11.168Z,12.19
2018-04-17T06:10:11.769Z,12.16
2018-04-17T06:11:05.329Z,12.21
2018-04-17T06:11:05.926Z,12.23
2018-04-17T06:11:06.525Z,12.21
2018-04-17T06:11:07.126Z,12.19
2018-04-17T06:11:07.725Z,12.23
2018-04-17T06:11:08.325Z,12.19
2018-04-17T06:11:08.924Z,12.21
2018-04-17T06:11:09.523Z,12.11
2018-04-17T06:12:04.023Z,12.19
2018-04-17T06:12:04.603Z,12.19
2018-04-17T06:12:05.201Z,12.13
2018-04-17T06:12:05.800Z,12.19
2018-04-17T06:12:06.400Z,12.13
2018-04-17T06:12:06.998Z,12.19
2018-04-17T06:12:07.618Z,12.19
2018-04-17T06:12:08.197Z,12.15
2018-04-17T06:13:02.678Z,12.20
2018-04-17T06:13:03.275Z,12.15
2018-04-17T06:13:03.875Z,12.20
2018-04-17T06:13:04.475Z,12.21
2018-04-17T06:13:05.089Z,12.16
2018-04-17T06:13:05.678Z,12.21
2018-04-17T06:13:06.275Z,12.30
2018-04-17T06:13:06.875Z,12.29
2018-04-17T06:14:00.841Z,12.31
2018-04-17T06:14:01.447Z,12.37
2018-04-17T06:14:02.038Z,12.29
2018-04-17T06:14:02.639Z,12.29
2018-04-17T06:14:03.239Z,12.26
2018-04-17T06:14:03.840Z,12.31
2018-04-17T06:14:04.439Z,12.37
2018-04-17T06:15:17.279Z,12.30
2018-04-17T06:15:17.833Z,12.34
2018-04-17T06:15:18.430Z,12.37
2018-04-17T06:15:19.034Z,12.27
2018-04-17T06:15:19.631Z,12.38
2018-04-17T06:15:20.231Z,12.42
2018-04-17T06:15:20.830Z,12.39
2018-04-17T06:15:21.457Z,12.30
2018-04-17T06:16:15.917Z,12.39
2018-04-17T06:16:16.505Z,12.39
2018-04-17T06:16:17.111Z,12.38
2018-04-17T06:16:17.707Z,12.44
2018-04-17T06:16:18.306Z,12.46
2018-04-17T06:16:18.905Z,12.41
2018-04-17T06:16:19.506Z,12.46
2018-04-17T06:16:20.105Z,12.41
2018-04-17T06:17:14.592Z,12.41
2018-04-17T06:17:15.182Z,12.42
2018-04-17T06:17:15.783Z,12.41
2018-04-17T06:17:16.387Z,12.42
2018-04-17T06:17:16.980Z,12.39
2018-04-17T06:17:17.579Z,12.39
2018-04-17T06:17:18.179Z,12.44
2018-04-17T06:17:18.778Z,12.48
2018-04-17T06:18:13.267Z,12.39
2018-04-17T06:18:13.857Z,12.46
2018-04-17T06:18:14.465Z,12.38
2018-04-17T06:18:15.058Z,12.44
2018-04-17T06:18:15.657Z,12.41
2018-04-17T06:18:16.257Z,12.39
2018-04-17T06:18:16.857Z,12.42
2018-04-17T06:18:17.464Z,12.44
2018-04-17T06:19:10.918Z,12.42
2018-04-17T06:19:11.514Z,12.39
2018-04-17T06:19:12.109Z,12.38
2018-04-17T06:19:12.719Z,12.39
2018-04-17T06:19:13.309Z,12.42
2018-04-17T06:19:13.918Z,12.41
2018-04-17T06:19:14.511Z,12.39
2018-04-17T06:19:15.109Z,12.44
2018-04-17T06:20:08.566Z,12.42
2018-04-17T06:20:09.162Z,12.41
2018-04-17T06:20:09.761Z,12.41
2018-04-17T06:20:10.365Z,12.44
2018-04-17T06:20:10.964Z,12.41
2018-04-17T06:20:11.562Z,12.42
2018-04-17T06:20:12.161Z,12.44
2018-04-17T06:20:12.772Z,12.51
2018-04-17T06:21:07.337Z,12.46
2018-04-17T06:21:07.844Z,12.46
2018-04-17T06:21:08.441Z,12.52
2018-04-17T06:21:09.042Z,12.44
2018-04-17T06:21:09.641Z,12.39
2018-04-17T06:21:10.240Z,12.56
2018-04-17T06:21:10.842Z,12.44
2018-04-17T06:21:11.441Z,12.46
2018-04-17T06:22:05.917Z,12.52
2018-04-17T06:22:06.514Z,12.51
2018-04-17T06:22:07.112Z,12.51
2018-04-17T06:22:07.711Z,12.54
2018-04-17T06:22:08.311Z,12.52
2018-04-17T06:22:08.913Z,12.52
2018-04-17T06:22:09.511Z,12.54
2018-04-17T06:22:10.112Z,12.54
2018-04-17T06:23:03.570Z,12.56
2018-04-17T06:23:04.165Z,12.56
2018-04-17T06:23:04.764Z,12.52
2018-04-17T06:23:05.364Z,12.56
2018-04-17T06:23:05.965Z,12.54
2018-04-17T06:23:06.564Z,12.54
2018-04-17T06:23:07.169Z,12.62
2018-04-17T06:23:07.768Z,12.54
2018-04-17T06:24:01.222Z,12.57
2018-04-17T06:24:01.822Z,12.59
2018-04-17T06:24:02.420Z,12.66
2018-04-17T06:24:03.019Z,12.62
2018-04-17T06:24:03.616Z,12.59
2018-04-17T06:24:04.217Z,12.57
2018-04-17T06:24:04.818Z,12.52
2018-04-17T06:24:05.426Z,12.69
2018-04-17T06:24:59.897Z,12.69
2018-04-17T06:25:00.491Z,12.67
2018-04-17T06:25:01.091Z,12.71
2018-04-17T06:25:01.690Z,12.59
2018-04-17T06:25:02.291Z,12.62
2018-04-17T06:25:02.892Z,12.57
2018-04-17T06:25:03.491Z,12.70
2018-04-17T06:25:04.098Z,12.66
2018-04-17T06:25:58.612Z,12.62
2018-04-17T06:25:59.171Z,12.60
2018-04-17T06:25:59.794Z,12.63
2018-04-17T06:26:00.398Z,12.64
2018-04-17T06:26:01.020Z,12.70
2018-04-17T06:26:01.594Z,12.64
2018-04-17T06:26:02.170Z,12.64
2018-04-17T06:26:02.771Z,12.64
2018-04-17T08:10:12.787Z,16.56
2018-04-17T08:10:13.289Z,16.56
2018-04-17T08:10:13.889Z,16.50
2018-04-17T08:10:14.490Z,16.53
2018-04-17T08:10:15.106Z,16.56
2018-04-17T08:10:15.687Z,16.55
2018-04-17T08:10:16.406Z,16.55
2018-04-17T08:10:16.885Z,16.56
2018-04-17T08:10:17.485Z,16.55
2018-04-17T08:10:18.085Z,16.59
2018-04-17T08:10:18.705Z,16.53
2018-04-17T08:10:19.327Z,16.56
2018-04-17T08:46:52.125Z,17.95
2018-04-17T08:46:52.664Z,17.92
2018-04-17T08:46:53.270Z,17.94
2018-04-17T08:46:53.865Z,17.95
2018-04-17T08:46:54.468Z,17.92
2018-04-17T08:46:55.063Z,17.91
2018-04-17T08:46:55.663Z,17.92
2018-04-17T08:46:56.276Z,17.91
2018-04-17T08:46:56.862Z,17.91
2018-04-17T08:46:57.462Z,17.99
2018-04-17T08:46:58.062Z,17.89
2018-04-17T08:46:58.666Z,17.99
2018-04-17T08:46:59.263Z,17.97
2018-04-17T08:46:59.862Z,17.91
2018-04-17T08:47:00.477Z,17.92
2018-04-17T08:47:55.962Z,18.00
2018-04-17T08:47:56.568Z,17.95
2018-04-17T08:47:57.160Z,17.87
2018-04-17T08:47:57.760Z,17.97
2018-04-17T08:47:58.360Z,18.00
2018-04-17T08:47:58.961Z,17.99
2018-04-17T08:49:13.636Z,17.92
2018-04-17T08:49:14.182Z,17.95
2018-04-17T08:49:14.781Z,18.04
2018-04-17T08:49:15.380Z,18.03
2018-04-17T08:49:15.984Z,18.04
2018-04-17T08:49:16.581Z,18.04
2018-04-17T08:49:17.179Z,18.02
2018-04-17T08:50:18.233Z,18.12
2018-04-17T08:50:18.797Z,18.06
2018-04-17T08:50:19.396Z,18.06
2018-04-17T08:50:19.996Z,18.09
2018-04-17T08:50:20.597Z,18.10
2018-04-17T08:50:21.246Z,18.10
2018-04-17T08:50:21.794Z,18.13
2018-04-17T08:50:22.421Z,18.02
2018-04-17T08:50:23.012Z,18.09
2018-04-17T08:50:23.595Z,18.09
2018-04-17T08:50:24.194Z,18.13
2018-04-17T08:50:24.817Z,18.10
2018-04-17T08:51:50.362Z,18.09
2018-04-17T08:51:50.964Z,18.06
2018-04-17T08:51:51.556Z,18.10
2018-04-17T08:51:52.181Z,18.09
2018-04-17T08:51:52.757Z,18.13
2018-04-17T08:52:49.284Z,18.12
2018-04-17T08:52:49.842Z,18.12
2018-04-17T08:52:50.439Z,18.04
2018-04-17T08:52:51.038Z,18.10
2018-04-17T08:52:51.638Z,18.13
2018-04-17T08:52:52.272Z,18.02
2018-04-17T08:53:47.731Z,18.13
2018-04-17T08:53:48.315Z,18.17
2018-04-17T08:53:48.911Z,18.19
2018-04-17T08:53:49.509Z,18.17
2018-04-17T08:53:50.111Z,18.17
2018-04-17T08:53:50.726Z,18.18
2018-04-17T08:54:44.756Z,18.15
2018-04-17T08:54:45.349Z,18.17
2018-04-17T08:54:45.948Z,18.18
2018-04-17T08:54:46.551Z,18.18
2018-04-17T08:54:47.149Z,18.17
2018-04-17T08:54:47.748Z,18.15
2018-04-17T08:54:48.348Z,18.13
2018-04-17T08:54:48.954Z,18.17
2018-04-17T08:55:49.990Z,18.28
2018-04-17T08:55:50.578Z,18.24
2018-04-17T08:55:51.184Z,18.22
2018-04-17T08:55:51.781Z,18.15
2018-04-17T08:55:52.378Z,18.25
2018-04-17T08:55:52.986Z,18.24
2018-04-17T08:55:53.575Z,18.24
2018-04-17T08:55:54.176Z,18.25
2018-04-17T08:55:54.778Z,18.25
2018-04-17T08:55:55.375Z,18.24
2018-04-17T08:55:55.978Z,18.22
2018-04-17T08:55:56.575Z,18.24
2018-04-17T08:56:51.633Z,18.31
2018-04-17T08:56:52.231Z,18.33
2018-04-17T08:56:52.824Z,18.29
2018-04-17T08:56:53.430Z,18.25
2018-04-17T08:56:54.037Z,18.36
2018-04-17T08:56:54.633Z,18.33
2018-04-17T08:57:53.606Z,18.29
2018-04-17T08:57:54.176Z,18.34
2018-04-17T08:57:54.775Z,18.33
2018-04-17T08:57:55.377Z,18.29
2018-04-17T08:57:55.976Z,18.33
2018-04-17T08:57:56.578Z,18.37
2018-04-17T08:57:57.179Z,18.29
2018-04-17T08:57:57.804Z,18.36
2018-04-17T08:57:58.374Z,18.33
2018-04-17T08:57:58.978Z,18.33
2018-04-17T08:57:59.575Z,18.33
2018-04-17T08:58:00.174Z,18.37
2018-04-17T08:58:00.774Z,18.29
2018-04-17T08:58:01.374Z,18.31
2018-04-17T08:58:01.973Z,18.31
2018-04-17T08:58:02.574Z,18.28
2018-04-17T08:58:03.175Z,18.33
2018-04-17T08:58:58.707Z,18.40
2018-04-17T08:58:59.318Z,18.37
2018-04-17T08:58:59.903Z,18.42
2018-04-17T08:59:00.505Z,18.42
2018-04-17T08:59:01.104Z,18.46
2018-04-17T08:59:01.715Z,18.43
2018-04-17T09:00:13.282Z,18.44
2018-04-17T09:00:13.851Z,18.44
2018-04-17T09:00:14.453Z,18.50
2018-04-17T09:00:15.053Z,18.52
2018-04-17T09:00:15.649Z,18.47
2018-04-17T09:00:16.251Z,18.44
2018-04-17T09:00:16.849Z,18.46
2018-04-17T09:00:17.451Z,18.43
2018-04-17T09:00:18.051Z,18.44
2018-04-17T09:00:18.653Z,18.47
2018-04-17T09:00:19.250Z,18.46
2018-04-17T09:00:19.849Z,18.47
2018-04-17T09:01:13.366Z,18.49
2018-04-17T09:01:13.963Z,18.62
2018-04-17T09:01:14.565Z,18.55
2018-04-17T09:01:15.162Z,18.59
2018-04-17T09:01:15.775Z,18.55
2018-04-17T09:01:16.371Z,18.47
2018-04-17T09:01:16.962Z,18.49
2018-04-17T09:01:17.562Z,18.54
2018-04-17T09:02:11.044Z,18.55
2018-04-17T09:02:11.613Z,18.65
2018-04-17T09:02:12.212Z,18.61
2018-04-17T09:02:12.814Z,18.59
2018-04-17T09:02:13.417Z,18.67
2018-04-17T09:02:14.019Z,18.58
2018-04-17T09:02:14.613Z,18.67
2018-04-17T09:02:15.215Z,18.61
2018-04-17T09:03:09.185Z,18.61
2018-04-17T09:03:09.777Z,18.70
2018-04-17T09:03:10.375Z,18.62
2018-04-17T09:03:10.977Z,18.55
2018-04-17T09:03:11.580Z,18.64
2018-04-17T09:03:12.187Z,18.58
2018-04-17T09:03:12.780Z,18.62
2018-04-17T09:04:06.833Z,18.68
2018-04-17T09:04:07.426Z,18.74
2018-04-17T09:04:08.031Z,18.64
2018-04-17T09:04:08.627Z,18.67
2018-04-17T09:04:09.226Z,18.74
2018-04-17T09:04:09.827Z,18.67
2018-04-17T09:04:10.427Z,18.67
2018-04-17T09:05:03.971Z,18.80
2018-04-17T09:05:04.571Z,18.76
2018-04-17T09:05:05.169Z,18.72
2018-04-17T09:05:05.770Z,18.79
2018-04-17T09:05:06.367Z,18.74
2018-04-17T09:05:06.968Z,18.77
2018-04-17T09:05:07.571Z,18.73
2018-04-17T09:05:08.170Z,18.73
2018-04-17T09:06:31.723Z,18.77
2018-04-17T09:06:32.256Z,18.79
2018-04-17T09:06:32.851Z,18.83
2018-04-17T09:06:33.448Z,18.83
2018-04-17T09:06:34.054Z,18.84
2018-04-17T09:06:34.647Z,18.80
2018-04-17T09:06:35.247Z,18.82
2018-04-17T09:06:35.848Z,18.79
2018-04-17T09:06:36.447Z,18.87
2018-04-17T09:06:37.048Z,18.82
2018-04-17T09:07:30.539Z,18.99
2018-04-17T09:07:31.103Z,19.02
2018-04-17T09:07:31.703Z,18.97
2018-04-17T09:07:32.304Z,18.97
2018-04-17T09:07:32.911Z,18.92
2018-04-17T09:07:33.513Z,18.94
2018-04-17T09:07:34.105Z,18.99
2018-04-17T09:07:34.704Z,18.92
2018-04-17T09:08:29.800Z,18.90
2018-04-17T09:08:30.395Z,18.86
2018-04-17T09:08:30.993Z,18.87
2018-04-17T09:08:31.593Z,18.86
2018-04-17T09:08:32.191Z,18.80
2018-04-17T09:46:07.683Z,20.09
2018-04-17T09:46:08.252Z,19.95
2018-04-17T09:46:08.825Z,20.00
2018-04-17T09:46:09.427Z,20.03
2018-04-17T09:46:10.023Z,20.03
2018-04-17T09:47:05.016Z,20.08
2018-04-17T09:47:05.570Z,20.12
2018-04-17T09:47:06.169Z,20.13
2018-04-17T09:47:06.769Z,20.09
2018-04-17T09:47:08.120Z,20.23
2018-04-17T09:47:08.629Z,20.23
2018-04-17T09:47:09.228Z,20.16
2018-04-17T09:48:12.959Z,20.09
2018-04-17T09:48:13.463Z,20.18
2018-04-17T09:48:13.961Z,20.12
2018-04-17T09:48:14.561Z,20.23
2018-04-17T09:48:15.214Z,20.08
2018-04-17T09:48:15.760Z,20.08
2018-04-17T09:48:16.359Z,20.09
2018-04-17T09:48:16.992Z,20.16
2018-04-17T09:49:23.529Z,20.21
2018-04-17T09:49:24.119Z,20.16
2018-04-17T09:49:24.721Z,20.20
2018-04-17T09:50:19.765Z,20.23
2018-04-17T09:50:20.338Z,20.23
2018-04-17T09:50:20.955Z,20.28
2018-04-17T09:50:21.540Z,20.28
2018-04-17T09:50:22.155Z,20.28
2018-04-17T09:50:22.771Z,20.31
2018-04-17T09:51:17.327Z,20.33
2018-04-17T09:51:17.893Z,20.28
2018-04-17T09:51:18.488Z,20.38
2018-04-17T09:51:19.095Z,20.35
2018-04-17T09:51:19.697Z,20.34
2018-04-17T09:51:20.300Z,20.34
2018-04-17T09:51:20.889Z,20.33
2018-04-17T09:52:17.435Z,20.30
2018-04-17T09:52:17.997Z,20.28
2018-04-17T09:52:18.596Z,20.33
2018-04-17T09:53:13.108Z,20.24
2018-04-17T09:53:13.703Z,20.24
2018-04-17T09:53:14.304Z,20.20
2018-04-17T09:53:14.915Z,20.23
2018-04-17T09:53:15.528Z,20.20
2018-04-17T09:53:16.137Z,20.20
2018-04-17T09:53:16.754Z,20.24
2018-04-17T09:53:17.303Z,20.18
2018-04-17T09:54:10.761Z,20.42
2018-04-17T09:54:11.357Z,20.41
2018-04-17T09:54:11.957Z,20.39
2018-04-17T09:54:12.556Z,20.38
2018-04-17T09:54:13.159Z,20.47
2018-04-17T09:54:13.756Z,20.39
2018-04-17T09:54:14.357Z,20.42
2018-04-17T09:54:14.957Z,20.42
2018-04-17T09:55:09.436Z,20.58
2018-04-17T09:55:10.032Z,20.59
2018-04-17T09:55:10.642Z,20.50
2018-04-17T09:55:11.238Z,20.53
2018-04-17T09:55:11.831Z,20.47
2018-04-17T09:55:12.470Z,20.51
2018-04-17T09:55:13.032Z,20.59
2018-04-17T09:55:13.633Z,20.59
2018-04-17T09:56:07.268Z,20.76
2018-04-17T09:56:07.684Z,20.74
2018-04-17T09:56:08.297Z,20.77
2018-04-17T09:56:08.887Z,20.81
2018-04-17T09:56:09.522Z,20.77
2018-04-17T09:56:10.102Z,20.79
2018-04-17T09:56:10.683Z,20.77
2018-04-17T09:56:11.286Z,20.76
2018-04-17T09:57:04.745Z,20.81
2018-04-17T09:57:05.375Z,20.81
2018-04-17T09:57:05.937Z,20.74
2018-04-17T09:57:06.648Z,20.79
2018-04-17T09:57:07.163Z,20.83
2018-04-17T09:57:07.774Z,20.77
2018-04-17T09:57:08.380Z,20.80
2018-04-17T09:57:08.941Z,20.83
2018-04-17T09:58:03.952Z,20.89
2018-04-17T09:58:04.522Z,20.95
2018-04-17T09:58:05.128Z,20.95
2018-04-17T09:58:05.722Z,20.96
2018-04-17T09:58:06.323Z,20.95
2018-04-17T09:58:06.924Z,20.98
2018-04-17T09:59:00.964Z,21.24
2018-04-17T09:59:01.564Z,21.21
2018-04-17T09:59:02.161Z,21.17
2018-04-17T09:59:02.760Z,21.17
2018-04-17T09:59:03.361Z,21.17
2018-04-17T09:59:03.961Z,21.27
2018-04-17T09:59:04.561Z,21.14
2018-04-17T09:59:05.163Z,21.17
2018-04-17T09:59:58.619Z,21.27
2018-04-17T09:59:59.235Z,21.35
2018-04-17T09:59:59.813Z,21.27
2018-04-17T10:00:00.412Z,21.29
2018-04-17T10:00:01.013Z,21.39
2018-04-17T10:00:01.614Z,21.41
2018-04-17T10:00:02.236Z,21.41
2018-04-17T10:00:02.813Z,21.30
2018-04-17T10:00:57.289Z,21.42
2018-04-17T10:00:57.888Z,21.46
2018-04-17T10:00:58.489Z,21.50
2018-04-17T10:00:59.090Z,21.56
2018-04-17T10:00:59.688Z,21.53
2018-04-17T10:01:00.387Z,21.51
2018-04-17T10:01:00.891Z,21.54
2018-04-17T10:01:01.488Z,21.45
2018-04-17T10:01:54.942Z,21.56
2018-04-17T10:01:55.541Z,21.56
2018-04-17T10:01:56.140Z,21.54
2018-04-17T10:01:56.741Z,21.50
2018-04-17T10:01:57.340Z,21.53
2018-04-17T10:01:57.943Z,21.53
2018-04-17T10:01:58.541Z,21.53
2018-04-17T10:01:59.142Z,21.54
2018-04-17T10:02:53.688Z,21.66
2018-04-17T10:02:54.216Z,21.74
2018-04-17T10:02:54.818Z,21.63
2018-04-17T10:02:55.416Z,21.67
2018-04-17T10:02:56.016Z,21.71
2018-04-17T10:02:56.618Z,21.61
2018-04-17T10:02:57.230Z,21.67
2018-04-17T10:02:57.817Z,21.64
2018-04-17T10:03:51.322Z,21.90
2018-04-17T10:03:51.870Z,21.90
2018-04-17T10:03:52.466Z,21.81
2018-04-17T10:03:53.066Z,21.76
2018-04-17T10:03:53.667Z,21.76
2018-04-17T10:03:54.265Z,21.88
2018-04-17T10:03:54.866Z,21.85
2018-04-17T10:03:55.468Z,21.91
2018-04-17T10:04:49.948Z,21.94
2018-04-17T10:04:50.551Z,22.01
2018-04-17T10:04:51.143Z,21.90
2018-04-17T10:04:51.742Z,21.91
2018-04-17T10:04:52.344Z,21.94
2018-04-17T10:04:52.943Z,21.98
2018-04-17T10:04:53.547Z,22.01
2018-04-17T10:04:54.147Z,21.99
2018-04-17T10:05:47.598Z,22.02
2018-04-17T10:05:48.199Z,22.01
2018-04-17T10:05:48.798Z,22.02
2018-04-17T10:05:49.398Z,21.99
2018-04-17T10:05:49.999Z,22.01
2018-04-17T10:05:50.596Z,22.04
2018-04-17T10:05:51.196Z,22.01
2018-04-17T10:05:51.798Z,22.07
2018-04-17T10:06:46.273Z,21.99
2018-04-17T10:06:46.868Z,21.98
2018-04-17T10:06:47.470Z,21.98
2018-04-17T10:06:48.069Z,22.07
2018-04-17T10:06:48.670Z,22.01
2018-04-17T10:06:49.268Z,21.95
2018-04-17T10:06:49.868Z,22.02
2018-04-17T10:06:50.470Z,22.02
2018-04-17T10:07:44.949Z,22.04
2018-04-17T10:07:45.546Z,22.02
2018-04-17T10:07:46.146Z,22.06
2018-04-17T10:07:46.746Z,22.04
2018-04-17T10:07:47.346Z,22.04
2018-04-17T10:07:47.945Z,22.07
2018-04-17T10:07:48.545Z,22.02
2018-04-17T10:07:49.148Z,22.07
2018-04-17T10:08:42.665Z,22.12
2018-04-17T10:08:43.210Z,22.14
2018-04-17T10:08:43.837Z,22.10
2018-04-17T10:08:44.461Z,22.19
2018-04-17T10:08:45.080Z,22.07
2018-04-17T10:08:45.653Z,22.16
2018-04-17T10:08:46.224Z,22.07
2018-04-17T10:08:46.816Z,22.10
2018-04-17T10:09:40.355Z,22.19
2018-04-17T10:09:40.955Z,22.22
2018-04-17T10:09:41.554Z,22.13
2018-04-17T10:09:42.152Z,22.27
2018-04-17T10:09:42.753Z,22.19
2018-04-17T10:09:43.353Z,22.14
2018-04-17T10:09:43.956Z,22.16
2018-04-17T10:09:44.554Z,22.20
2018-04-17T10:10:38.110Z,22.23
2018-04-17T10:10:38.708Z,22.22
2018-04-17T10:10:39.306Z,22.29
2018-04-17T10:10:39.908Z,22.25
2018-04-17T10:10:40.508Z,22.22
2018-04-17T10:10:41.110Z,22.22
2018-04-17T10:10:41.706Z,22.25
2018-04-17T10:10:42.307Z,22.23
2018-04-17T10:11:35.864Z,22.22
2018-04-17T10:11:36.462Z,22.28
2018-04-17T10:11:37.061Z,22.23
2018-04-17T10:11:37.665Z,22.25
2018-04-17T10:11:38.261Z,22.25
2018-04-17T10:11:38.864Z,22.28
2018-04-17T10:11:39.464Z,22.20
2018-04-17T10:11:40.061Z,22.29
2018-04-17T10:12:33.622Z,22.35
2018-04-17T10:12:34.216Z,22.35
2018-04-17T10:12:34.816Z,22.31
2018-04-17T10:12:35.415Z,22.31
2018-04-17T10:12:36.018Z,22.29
2018-04-17T10:12:36.616Z,22.37
2018-04-17T10:12:37.216Z,22.35
2018-04-17T10:12:37.815Z,22.38
2018-04-17T10:13:31.401Z,22.23
2018-04-17T10:13:31.970Z,22.23
2018-04-17T10:13:32.571Z,22.25
2018-04-17T10:13:33.169Z,22.17
2018-04-17T10:13:33.770Z,22.22
2018-04-17T10:13:34.373Z,22.25
2018-04-17T10:13:34.969Z,22.19
2018-04-17T10:13:35.571Z,22.27
2018-04-17T10:14:29.126Z,22.34
2018-04-17T10:14:29.724Z,22.35
2018-04-17T10:14:30.325Z,22.29
2018-04-17T10:14:30.926Z,22.31
2018-04-17T10:14:31.523Z,22.31
2018-04-17T10:14:32.123Z,22.34
2018-04-17T10:14:32.726Z,22.35
2018-04-17T10:14:33.324Z,22.31
2018-04-17T10:15:27.800Z,22.50
2018-04-17T10:15:28.403Z,22.52
2018-04-17T10:15:29.000Z,22.46
2018-04-17T10:15:29.597Z,22.47
2018-04-17T10:15:30.198Z,22.50
2018-04-17T10:15:30.800Z,22.47
2018-04-17T10:15:31.399Z,22.47
2018-04-17T10:15:31.999Z,22.49
2018-04-17T10:16:25.453Z,22.35
2018-04-17T10:16:26.052Z,22.37
2018-04-17T10:16:26.652Z,22.37
2018-04-17T10:16:27.251Z,22.39
2018-04-17T10:16:27.852Z,22.35
2018-04-17T10:16:28.452Z,22.38
2018-04-17T10:16:29.050Z,22.34
2018-04-17T10:16:29.652Z,22.34
2018-04-17T10:17:23.260Z,22.25
2018-04-17T10:17:23.812Z,22.25
2018-04-17T10:17:24.431Z,22.29
2018-04-17T10:17:25.038Z,22.34
2018-04-17T10:17:25.657Z,22.22
2018-04-17T10:17:26.241Z,22.25
2018-04-17T10:17:26.843Z,22.27
2018-04-17T10:17:27.442Z,22.34
2018-04-17T10:18:21.910Z,22.29
2018-04-17T10:18:22.485Z,22.22
2018-04-17T10:18:23.081Z,22.16
2018-04-17T10:18:23.680Z,22.23
2018-04-17T10:18:24.278Z,22.28
2018-04-17T10:18:24.881Z,22.27
2018-04-17T10:18:25.480Z,22.28
2018-04-17T10:18:26.079Z,22.29
2018-04-17T10:19:20.558Z,22.49
2018-04-17T10:19:21.157Z,22.52
2018-04-17T10:19:21.756Z,22.44
2018-04-17T10:19:22.355Z,22.49
2018-04-17T10:19:22.958Z,22.41
2018-04-17T10:19:23.556Z,22.44
2018-04-17T10:19:24.155Z,22.53
2018-04-17T10:19:24.757Z,22.50
2018-04-17T10:20:18.212Z,22.65
2018-04-17T10:20:18.809Z,22.62
2018-04-17T10:20:19.409Z,22.59
2018-04-17T10:20:20.014Z,22.64
2018-04-17T10:20:20.609Z,22.60
2018-04-17T10:20:21.207Z,22.57
2018-04-17T10:20:21.809Z,22.64
2018-04-17T10:20:22.413Z,22.57
2018-04-17T10:21:15.967Z,22.77
2018-04-17T10:21:16.564Z,22.75
2018-04-17T10:21:17.165Z,22.69
2018-04-17T10:21:17.760Z,22.75
2018-04-17T10:21:18.364Z,22.72
2018-04-17T10:21:18.960Z,22.74
2018-04-17T10:21:19.569Z,22.78
2018-04-17T10:21:20.161Z,22.74
2018-04-17T10:22:13.723Z,22.83
2018-04-17T10:22:14.319Z,22.86
2018-04-17T10:22:14.916Z,22.87
2018-04-17T10:22:15.518Z,22.82
2018-04-17T10:22:16.134Z,22.89
2018-04-17T10:22:16.717Z,22.80
2018-04-17T10:22:17.316Z,22.87
2018-04-17T10:22:17.917Z,22.84
2018-04-17T10:23:11.501Z,22.72
2018-04-17T10:23:12.072Z,22.75
2018-04-17T10:23:12.671Z,22.71
2018-04-17T10:23:13.272Z,22.74
2018-04-17T10:23:13.878Z,22.72
2018-04-17T10:23:14.472Z,22.74
2018-04-17T10:23:15.075Z,22.75
2018-04-17T10:23:15.674Z,22.74
2018-04-17T10:24:09.227Z,22.69
2018-04-17T10:24:09.825Z,22.75
2018-04-17T10:24:10.425Z,22.75
2018-04-17T10:24:11.025Z,22.68
2018-04-17T10:24:11.626Z,22.72
2018-04-17T10:24:12.225Z,22.71
2018-04-17T10:24:12.827Z,22.77
2018-04-17T10:24:13.425Z,22.72
2018-04-17T10:25:07.905Z,22.67
2018-04-17T10:25:08.501Z,22.71
2018-04-17T10:25:09.103Z,22.68
2018-04-17T10:25:09.701Z,22.71
2018-04-17T10:25:10.298Z,22.67
2018-04-17T10:25:10.899Z,22.68
2018-04-17T10:25:11.498Z,22.69
2018-04-17T10:25:12.098Z,22.67
2018-04-17T10:26:07.295Z,22.69
2018-04-17T10:26:07.892Z,22.67
2018-04-17T10:26:08.494Z,22.62
2018-04-17T10:26:09.096Z,22.72
2018-04-17T10:26:09.696Z,22.71
2018-04-17T10:26:10.293Z,22.72
2018-04-17T10:26:10.892Z,22.67
2018-04-17T10:26:11.493Z,22.59
2018-04-17T10:27:05.050Z,22.64